Time;durP1;ratioP1;P1;durP2;ratioP2;P2;SDS_P1;SDS_P2;PMS_P1;PMS_P2;Temp;Humidity;BMP_temperature;BMP_pressure;BME280_temperature;BME280_humidity;BME280_pressure;Samples;Min_cycle;Max_cycle;Signal;HPM_P1;HPM_P2
2024/04/03 00:02:05;;;;;;;;;5.00;4.00;;;;;9.18;82.56;98919.20;113262;225;40203;-56
2024/04/03 00:04:48;;;;;;;;;6.00;5.00;;;;;9.20;82.44;98919.23;113150;224;172260;-55
2024/04/03 00:07:25;;;;;;;;;4.00;3.00;;;;;9.25;82.45;98915.88;113307;223;40889;-54
2024/04/03 00:10:06;;;;;;;;;6.00;5.00;;;;;9.28;82.41;98919.09;113134;225;169281;-56
2024/04/03 00:12:47;;;;;;;;;4.75;2.75;;;;;9.27;82.24;98923.91;113296;223;41108;-56
2024/04/03 00:15:22;;;;;;;;;5.00;5.00;;;;;9.25;82.13;98920.53;113135;223;169360;-57
2024/04/03 00:17:57;;;;;;;;;6.00;5.00;;;;;9.20;82.06;98917.98;113322;224;40439;-56
2024/04/03 00:20:32;;;;;;;;;5.00;4.00;;;;;9.14;82.08;98914.83;113363;227;41688;-57
2024/04/03 00:23:10;;;;;;;;;6.00;4.00;;;;;9.09;82.08;98907.68;112975;226;167954;-58
2024/04/03 00:25:56;;;;;;;;;4.00;4.00;;;;;9.05;82.24;98914.97;113342;223;43003;-56
2024/04/03 00:28:32;;;;;;;;;3.00;2.67;;;;;8.97;82.27;98920.92;113144;227;168569;-56
2024/04/03 00:31:07;;;;;;;;;5.00;4.00;;;;;8.88;82.09;98921.96;113364;223;41230;-56
2024/04/03 00:33:51;;;;;;;;;4.00;3.00;;;;;8.80;82.38;98926.11;113156;223;169902;-55
2024/04/03 00:36:30;;;;;;;;;5.00;4.00;;;;;8.71;82.39;98931.48;113369;224;40868;-54
2024/04/03 00:39:07;;;;;;;;;5.00;3.33;;;;;8.66;82.53;98932.63;113183;225;169479;-55
2024/04/03 00:41:43;;;;;;;;;6.00;4.00;;;;;8.65;82.62;98938.36;113353;224;40404;-54
2024/04/03 00:44:17;;;;;;;;;5.00;4.00;;;;;8.66;82.60;98931.55;113372;225;41319;-57
2024/04/03 00:47:01;;;;;;;;;3.00;3.00;;;;;8.69;82.79;98928.06;113153;224;169275;-57
2024/04/03 00:49:43;;;;;;;;;5.00;4.00;;;;;8.74;82.87;98927.05;113321;225;41033;-57
2024/04/03 00:52:19;;;;;;;;;3.00;3.00;;;;;8.80;83.01;98925.77;113096;228;170289;-57
2024/04/03 00:55:00;;;;;;;;;6.00;5.00;;;;;8.85;82.91;98921.61;113325;225;41712;-55
2024/04/03 00:57:38;;;;;;;;;2.50;2.50;;;;;8.91;82.88;98925.44;113135;225;169356;-55
2024/04/03 01:00:15;;;;;;;;;5.00;4.00;;;;;8.96;82.92;98928.44;113306;225;39927;-56
2024/04/03 01:02:52;;;;;;;;;7.00;5.00;;;;;8.98;82.68;98935.43;113106;225;169589;-56
2024/04/03 01:05:30;;;;;;;;;8.00;5.00;;;;;9.02;82.77;98936.56;113269;224;40741;-54
2024/04/03 01:08:06;;;;;;;;;4.00;3.00;;;;;9.04;82.66;98938.80;113295;225;41699;-54
2024/04/03 01:10:50;;;;;;;;;4.00;4.00;;;;;9.07;82.61;98941.55;113173;224;169542;-54
2024/04/03 01:13:35;;;;;;;;;5.00;4.00;;;;;9.09;82.63;98939.16;113305;225;41495;-56
2024/04/03 01:16:13;;;;;;;;;5.33;4.00;;;;;9.10;82.59;98935.05;113126;225;168507;-57
2024/04/03 01:18:50;;;;;;;;;4.00;4.00;;;;;9.14;82.70;98931.77;113352;228;40046;-55
2024/04/03 01:21:27;;;;;;;;;5.00;4.00;;;;;9.15;82.61;98935.80;113236;224;168553;-54
2024/04/03 01:24:07;;;;;;;;;4.00;3.00;;;;;9.14;82.57;98937.63;113342;225;40485;-58
2024/04/03 01:26:49;;;;;;;;;4.00;3.00;;;;;9.14;82.53;98937.50;113356;225;40008;-58
2024/04/03 01:29:25;;;;;;;;;4.00;4.00;;;;;9.14;82.59;98939.98;113369;224;39926;-56
2024/04/03 01:32:02;;;;;;;;;4.00;3.00;;;;;9.15;82.54;98934.34;113309;224;40438;-56
2024/04/03 01:34:52;;;;;;;;;5.33;4.00;;;;;9.15;82.52;98936.41;113114;224;170472;-57
2024/04/03 01:37:28;;;;;;;;;7.00;6.00;;;;;9.18;82.51;98927.41;113359;224;41470;-57
2024/04/03 01:40:03;;;;;;;;;3.00;3.00;;;;;9.22;82.41;98927.42;113171;228;170383;-56
2024/04/03 01:42:38;;;;;;;;;4.00;4.00;;;;;9.26;82.49;98924.46;113310;228;41213;-57
2024/04/03 01:45:20;;;;;;;;;4.00;3.00;;;;;9.31;82.46;98919.83;113178;225;169405;-57
2024/04/03 01:47:57;;;;;;;;;7.00;5.00;;;;;9.34;82.34;98916.77;113305;224;41789;-57
2024/04/03 01:50:43;;;;;;;;;4.00;4.00;;;;;9.34;82.24;98919.46;113378;224;40574;-54
2024/04/03 01:53:18;;;;;;;;;5.00;4.00;;;;;9.33;82.07;98917.58;113108;224;43511;-54
2024/04/03 01:56:02;;;;;;;;;6.00;6.00;;;;;9.35;82.17;98920.80;113372;229;40301;-54
2024/04/03 01:58:37;;;;;;;;;5.00;4.00;;;;;9.36;82.12;98923.95;113167;224;169292;-57
2024/04/03 02:01:16;;;;;;;;;4.50;3.00;;;;;9.38;82.20;98923.21;113400;224;41199;-58
2024/04/03 02:04:03;;;;;;;;;6.00;6.00;;;;;9.43;82.00;98922.02;113193;224;168909;-56
2024/04/03 02:06:43;;;;;;;;;4.50;4.00;;;;;9.46;81.90;98927.69;113394;225;39913;-57
2024/04/03 02:09:23;;;;;;;;;4.50;4.00;;;;;9.47;81.87;98919.96;113160;228;168745;-56
2024/04/03 02:12:02;;;;;;;;;5.00;4.00;;;;;9.46;81.76;98916.86;113245;224;40586;-56
2024/04/03 02:14:38;;;;;;;;;4.00;3.00;;;;;9.42;81.69;98918.13;113333;223;40411;-57
2024/04/03 02:17:15;;;;;;;;;5.00;4.00;;;;;9.39;81.72;98912.39;113158;225;168292;-57
2024/04/03 02:19:50;;;;;;;;;5.00;4.00;;;;;9.39;81.66;98916.17;113321;227;40404;-56
2024/04/03 02:22:27;;;;;;;;;5.00;5.00;;;;;9.37;81.65;98914.84;113142;225;168555;-56
2024/04/03 02:25:07;;;;;;;;;3.00;2.50;;;;;9.36;81.79;98917.69;113322;224;40116;-56
2024/04/03 02:27:45;;;;;;;;;5.00;4.00;;;;;9.35;81.86;98918.84;113113;228;168865;-57
2024/04/03 02:30:30;;;;;;;;;4.00;3.00;;;;;9.33;81.91;98908.73;113310;224;41122;-55
2024/04/03 02:33:08;;;;;;;;;4.00;3.67;;;;;9.32;81.84;98910.61;113133;228;169608;-54
2024/04/03 02:35:44;;;;;;;;;5.00;5.00;;;;;9.31;82.04;98908.50;113275;224;40455;-54
2024/04/03 02:38:24;;;;;;;;;5.00;5.00;;;;;9.31;82.17;98907.81;113288;225;41886;-55
2024/04/03 02:41:05;;;;;;;;;5.00;4.00;;;;;9.30;82.14;98906.23;113083;228;169399;-54
2024/04/03 02:43:50;;;;;;;;;4.00;4.00;;;;;9.33;82.24;98912.55;113319;225;40383;-56
2024/04/03 02:46:28;;;;;;;;;5.00;3.50;;;;;9.35;82.25;98903.38;113114;224;169914;-56
2024/04/03 02:49:06;;;;;;;;;5.00;4.00;;;;;9.36;82.29;98900.10;113365;223;40171;-55
2024/04/03 02:51:45;;;;;;;;;5.00;4.00;;;;;9.37;82.20;98895.77;113174;227;169211;-56
2024/04/03 02:54:20;;;;;;;;;6.00;4.00;;;;;9.38;82.28;98895.08;113401;227;40958;-54
2024/04/03 02:57:05;;;;;;;;;6.00;5.00;;;;;9.36;82.16;98896.03;113119;224;169112;-55
2024/04/03 02:59:45;;;;;;;;;4.00;4.00;;;;;9.32;82.34;98895.35;113341;224;41148;-58
2024/04/03 03:02:22;;;;;;;;;5.00;4.00;;;;;9.32;82.20;98906.92;113356;227;40193;-58
2024/04/03 03:04:56;;;;;;;;;4.00;3.00;;;;;9.31;82.25;98908.34;113163;224;168557;-55
2024/04/03 03:07:40;;;;;;;;;3.00;2.50;;;;;9.29;82.18;98911.05;113346;224;42328;-55
2024/04/03 03:10:18;;;;;;;;;3.00;3.00;;;;;9.26;82.21;98906.16;113136;227;169188;-57
2024/04/03 03:13:03;;;;;;;;;4.00;3.00;;;;;9.23;82.12;98903.59;113293;223;40499;-56
2024/04/03 03:15:56;;;;;;;;;3.00;3.00;;;;;9.20;82.13;98899.92;113085;224;169432;-57
2024/04/03 03:18:34;;;;;;;;;4.00;3.00;;;;;9.15;82.24;98900.36;113293;227;39635;-56
2024/04/03 03:21:09;;;;;;;;;4.00;3.00;;;;;9.16;82.10;98895.79;113127;223;170065;-55
2024/04/03 03:23:48;;;;;;;;;3.00;2.00;;;;;9.19;82.11;98888.52;113312;224;42012;-55
2024/04/03 03:26:32;;;;;;;;;4.00;3.00;;;;;9.20;82.15;98882.46;113288;223;41892;-56
2024/04/03 03:29:12;;;;;;;;;4.00;4.00;;;;;9.23;82.17;98880.79;113165;227;170164;-56
2024/04/03 03:31:55;;;;;;;;;3.00;3.00;;;;;9.23;82.26;98881.02;113318;223;41870;-58
2024/04/03 03:34:33;;;;;;;;;6.00;4.00;;;;;9.25;82.25;98884.59;113147;224;169927;-55
2024/04/03 03:37:13;;;;;;;;;4.00;2.33;;;;;9.25;82.28;98886.54;113323;225;41786;-56
2024/04/03 03:39:49;;;;;;;;;4.00;4.00;;;;;9.25;82.14;98894.20;113165;223;169346;-55
2024/04/03 03:42:29;;;;;;;;;5.50;4.00;;;;;9.26;82.10;98891.95;113398;224;39769;-56
2024/04/03 03:45:09;;;;;;;;;5.33;4.00;;;;;9.25;82.12;98892.59;113206;223;169528;-58
2024/04/03 03:47:50;;;;;;;;;3.00;3.00;;;;;9.26;81.99;98899.53;113343;224;41331;-57
2024/04/03 03:53:32;;;;;;;;;4.00;3.00;;;;;9.23;82.05;98895.95;113326;228;39762;-55
2024/04/03 03:56:12;;;;;;;;;4.00;4.00;;;;;9.21;82.15;98898.59;113247;224;40100;-55
2024/04/03 03:58:52;;;;;;;;;3.00;3.00;;;;;9.20;82.06;98895.15;113109;224;169027;-55
2024/04/03 04:01:29;;;;;;;;;4.00;3.00;;;;;9.19;82.07;98896.77;113322;223;40417;-55
2024/04/03 04:04:04;;;;;;;;;4.50;4.00;;;;;9.16;82.19;98891.73;113148;227;169424;-55
2024/04/03 04:06:46;;;;;;;;;5.00;4.00;;;;;9.14;82.25;98890.18;113301;224;40419;-54
2024/04/03 04:09:26;;;;;;;;;4.00;3.00;;;;;9.12;82.32;98887.49;113148;223;169515;-58
2024/04/03 04:12:06;;;;;;;;;5.00;4.00;;;;;9.14;82.43;98887.97;113325;224;40423;-58
2024/04/03 04:14:52;;;;;;;;;2.00;2.00;;;;;9.16;82.42;98883.36;113405;227;40407;-57
2024/04/03 04:17:30;;;;;;;;;5.00;4.00;;;;;9.18;82.53;98883.27;113307;224;42365;-58
2024/04/03 04:20:10;;;;;;;;;4.00;3.00;;;;;9.20;82.48;98885.70;113377;223;40774;-56
2024/04/03 04:22:46;;;;;;;;;2.00;2.00;;;;;9.27;82.54;98888.80;113175;223;169651;-56
2024/04/03 04:25:32;;;;;;;;;5.00;3.00;;;;;9.30;82.31;98888.45;113354;227;40948;-58
2024/04/03 04:28:09;;;;;;;;;6.00;4.00;;;;;9.34;82.41;98881.44;113167;223;169273;-58
2024/04/03 04:30:45;;;;;;;;;4.00;3.00;;;;;9.37;82.34;98884.83;113352;227;40356;-58
2024/04/03 04:33:29;;;;;;;;;4.00;3.00;;;;;9.37;82.30;98884.36;113147;223;169737;-58
2024/04/03 04:36:05;;;;;;;;;7.00;6.00;;;;;9.40;82.27;98882.70;113289;223;39790;-58
2024/04/03 04:38:44;;;;;;;;;6.00;4.00;;;;;9.42;82.18;98876.76;113338;227;40913;-57
2024/04/03 04:41:21;;;;;;;;;6.00;5.00;;;;;9.42;82.19;98882.31;113097;224;168661;-58
2024/04/03 04:43:59;;;;;;;;;5.00;4.00;;;;;9.42;82.23;98886.75;113382;223;41175;-58
2024/04/03 04:46:36;;;;;;;;;5.00;4.00;;;;;9.46;82.21;98882.64;113150;227;169087;-58
2024/04/03 04:49:11;;;;;;;;;5.00;5.00;;;;;9.46;82.18;98880.98;113351;223;40555;-57
2024/04/03 04:51:53;;;;;;;;;6.00;5.00;;;;;9.46;82.16;98875.52;113131;227;168936;-57
2024/04/03 04:54:29;;;;;;;;;6.00;4.00;;;;;9.44;82.25;98870.27;113327;223;41828;-57
2024/04/03 04:57:09;;;;;;;;;4.00;3.50;;;;;9.46;82.20;98872.33;113134;223;169727;-58
2024/04/03 04:59:47;;;;;;;;;4.00;3.50;;;;;9.48;82.25;98879.05;113352;223;40568;-57
2024/04/03 05:02:26;;;;;;;;;7.00;5.00;;;;;9.50;82.41;98874.28;113425;223;40309;-58
2024/04/03 05:05:05;;;;;;;;;5.00;5.00;;;;;9.55;82.26;98871.79;113211;227;169497;-56
2024/04/03 05:07:50;;;;;;;;;4.00;2.50;;;;;9.58;82.31;98871.47;113378;227;39770;-56
2024/04/03 05:10:25;;;;;;;;;8.00;6.00;;;;;9.65;82.34;98871.41;113159;223;169518;-57
2024/04/03 05:13:05;;;;;;;;;8.00;6.00;;;;;9.71;82.41;98882.61;113350;227;40584;-57
2024/04/03 05:15:46;;;;;;;;;8.00;6.00;;;;;9.76;82.28;98884.40;113176;223;170902;-56
2024/04/03 05:18:28;;;;;;;;;6.00;5.00;;;;;9.77;82.16;98889.02;113314;227;40503;-56
2024/04/03 05:21:08;;;;;;;;;7.00;5.00;;;;;9.79;82.27;98886.56;113122;223;169713;-56
2024/04/03 05:23:46;;;;;;;;;7.00;6.00;;;;;9.83;82.30;98888.52;113299;224;40570;-56
2024/04/03 05:26:28;;;;;;;;;8.50;7.00;;;;;9.90;82.32;98886.75;113321;223;40601;-58
2024/04/03 05:29:05;;;;;;;;;7.00;6.00;;;;;9.95;82.21;98894.00;113141;227;169045;-58
2024/04/03 05:31:43;;;;;;;;;6.00;5.00;;;;;9.97;82.22;98887.81;113369;223;41021;-59
2024/04/03 05:34:22;;;;;;;;;5.00;4.00;;;;;9.92;82.27;98887.85;113109;223;168932;-55
2024/04/03 05:37:01;;;;;;;;;6.50;5.00;;;;;9.97;82.29;98887.92;113310;223;41703;-54
2024/04/03 05:39:42;;;;;;;;;9.00;6.00;;;;;10.05;82.16;98891.05;113098;224;170738;-57
2024/04/03 05:42:19;;;;;;;;;8.00;6.50;;;;;10.15;82.20;98891.64;113352;224;40114;-56
2024/04/03 05:45:06;;;;;;;;;5.00;4.00;;;;;10.25;82.05;98886.98;113313;223;40686;-55
2024/04/03 05:47:48;;;;;;;;;6.00;5.00;;;;;10.29;81.67;98891.38;113271;225;40138;-54
2024/04/03 05:50:24;;;;;;;;;8.00;5.50;;;;;10.35;81.57;98897.98;113332;228;41278;-53
2024/04/03 05:53:00;;;;;;;;;4.50;3.00;;;;;10.37;81.33;98897.72;113141;228;169812;-55
2024/04/03 05:55:34;;;;;;;;;7.00;5.00;;;;;10.40;81.23;98894.54;113358;224;41505;-56
2024/04/03 05:58:15;;;;;;;;;7.00;6.00;;;;;10.44;81.14;98890.95;113151;225;169272;-55
2024/04/03 06:00:53;;;;;;;;;7.00;6.00;;;;;10.45;80.85;98896.55;113369;224;39979;-54
2024/04/03 06:03:32;;;;;;;;;8.33;6.00;;;;;10.40;80.81;98899.67;113190;225;169282;-56
2024/04/03 06:06:12;;;;;;;;;5.33;5.00;;;;;10.32;81.27;98910.61;113321;225;41317;-57
2024/04/03 06:08:54;;;;;;;;;5.00;4.00;;;;;10.32;81.51;98907.17;113358;223;41352;-55
2024/04/03 06:11:34;;;;;;;;;5.00;4.00;;;;;10.27;81.79;98903.64;113313;225;41511;-54
2024/04/03 06:14:10;;;;;;;;;4.00;3.50;;;;;10.17;81.99;98911.09;113268;227;41308;-57
2024/04/03 06:16:44;;;;;;;;;4.00;3.00;;;;;10.10;82.35;98912.79;113137;225;169229;-57
2024/04/03 06:19:24;;;;;;;;;5.50;4.00;;;;;10.17;82.70;98916.70;113322;224;41171;-55
2024/04/03 06:22:06;;;;;;;;;5.00;5.00;;;;;10.25;83.16;98916.24;113100;227;169999;-55
2024/04/03 06:24:42;;;;;;;;;5.00;5.00;;;;;10.26;83.24;98918.02;113363;223;39948;-58
2024/04/03 06:27:20;;;;;;;;;8.00;6.00;;;;;10.30;83.52;98916.14;113144;223;170091;-57
2024/04/03 06:30:00;;;;;;;;;9.00;7.00;;;;;10.64;83.67;98918.67;113332;224;41909;-56
2024/04/03 06:32:35;;;;;;;;;6.00;5.00;;;;;11.00;83.59;98914.19;113369;227;40217;-55
2024/04/03 06:35:10;;;;;;;;;7.00;6.00;;;;;11.53;83.60;98913.44;113171;223;169987;-57
2024/04/03 06:37:48;;;;;;;;;6.00;5.00;;;;;11.90;83.30;98918.61;113365;223;40964;-56
2024/04/03 06:40:26;;;;;;;;;9.00;7.00;;;;;11.97;82.50;98914.98;113157;227;170718;-56
2024/04/03 06:43:04;;;;;;;;;7.00;5.00;;;;;11.95;82.08;98913.48;113375;227;40370;-58
2024/04/03 06:45:44;;;;;;;;;9.00;7.00;;;;;11.91;81.83;98918.25;112449;227;919785;-55
2024/04/03 06:48:21;;;;;;;;;7.00;6.00;;;;;11.84;81.65;98921.30;113218;224;42212;-55
2024/04/03 06:50:58;;;;;;;;;8.00;6.00;;;;;11.77;81.11;98922.73;113365;224;40746;-56
2024/04/03 06:53:34;;;;;;;;;8.00;7.00;;;;;11.70;81.05;98931.31;113373;224;39891;-57
2024/04/03 06:56:09;;;;;;;;;9.33;8.00;;;;;11.63;80.79;98925.72;113294;227;41201;-56
2024/04/03 06:58:46;;;;;;;;;5.00;4.00;;;;;11.61;80.49;98929.78;113040;226;169305;-55
2024/04/03 07:01:21;;;;;;;;;6.00;5.00;;;;;11.62;80.48;98933.62;113334;224;41084;-54
2024/04/03 07:03:58;;;;;;;;;6.00;5.00;;;;;11.60;80.27;98939.41;113142;224;169592;-56
2024/04/03 07:06:37;;;;;;;;;5.50;4.50;;;;;11.48;80.18;98948.63;113298;223;40273;-56
2024/04/03 07:09:12;;;;;;;;;7.00;6.33;;;;;11.29;80.32;98943.48;113135;223;169983;-55
2024/04/03 07:11:54;;;;;;;;;4.00;4.00;;;;;11.11;80.24;98942.52;113321;224;40378;-55
2024/04/03 07:14:28;;;;;;;;;9.00;7.00;;;;;10.88;80.52;98955.55;113321;223;40890;-55
2024/04/03 07:17:03;;;;;;;;;4.33;4.00;;;;;10.69;81.08;98957.64;113113;224;169887;-55
2024/04/03 07:19:38;;;;;;;;;6.00;6.00;;;;;10.71;81.80;98956.13;113315;225;41665;-60
2024/04/03 07:22:15;;;;;;;;;6.00;5.00;;;;;10.90;81.98;98957.46;113209;224;169828;-58
2024/04/03 07:24:52;;;;;;;;;9.00;6.00;;;;;11.05;81.75;98963.89;113362;223;40408;-57
2024/04/03 07:27:35;;;;;;;;;8.00;7.00;;;;;11.02;81.70;98966.41;113175;223;170124;-55
2024/04/03 07:30:11;;;;;;;;;8.00;6.00;;;;;10.99;81.69;98967.34;113349;227;41842;-54
2024/04/03 07:32:52;;;;;;;;;9.75;6.50;;;;;10.99;81.85;98969.48;113389;223;41744;-54
2024/04/03 07:35:35;;;;;;;;;7.00;5.67;;;;;11.09;81.92;98967.73;113133;224;169455;-55
2024/04/03 07:38:10;;;;;;;;;7.00;5.00;;;;;11.24;81.81;98971.13;113330;223;40233;-55
2024/04/03 07:40:52;;;;;;;;;6.00;5.00;;;;;11.32;81.61;98965.19;113113;224;169532;-55
2024/04/03 07:43:33;;;;;;;;;7.00;6.00;;;;;11.43;81.56;98964.50;113350;225;40604;-55
2024/04/03 07:46:08;;;;;;;;;8.00;7.00;;;;;11.88;82.11;98958.34;113143;223;169197;-55
2024/04/03 07:48:48;;;;;;;;;6.00;6.00;;;;;12.24;81.45;98956.58;113355;224;40168;-55
2024/04/03 07:51:27;;;;;;;;;6.00;6.00;;;;;12.52;81.19;98954.98;113149;227;169744;-54
2024/04/03 07:54:08;;;;;;;;;4.00;4.00;;;;;12.79;80.74;98958.20;113332;227;40516;-55
2024/04/03 07:56:45;;;;;;;;;6.00;6.00;;;;;12.94;80.03;98953.58;113324;223;41716;-54
2024/04/03 07:59:22;;;;;;;;;7.00;6.00;;;;;13.13;79.19;98959.16;113155;224;169210;-55
2024/04/03 08:02:00;;;;;;;;;8.00;7.00;;;;;13.19;78.21;98957.91;113293;227;40414;-55
2024/04/03 08:04:42;;;;;;;;;6.00;5.75;;;;;13.22;77.83;98956.60;113178;227;169280;-55
2024/04/03 08:07:20;;;;;;;;;9.00;7.00;;;;;13.05;77.74;98960.80;113299;223;40273;-54
2024/04/03 08:09:57;;;;;;;;;6.00;6.00;;;;;13.30;79.02;98961.40;113167;228;169195;-56
2024/04/03 08:12:37;;;;;;;;;6.25;5.25;;;;;14.21;77.88;98953.38;113323;227;40929;-55
2024/04/03 08:15:15;;;;;;;;;7.00;6.00;;;;;14.23;75.98;98945.27;113179;223;170206;-54
2024/04/03 08:17:52;;;;;;;;;6.00;6.00;;;;;14.16;75.80;98958.67;113282;224;40676;-55
2024/04/03 08:20:29;;;;;;;;;5.50;4.50;;;;;14.10;75.61;98952.12;113285;223;40100;-54
2024/04/03 08:23:03;;;;;;;;;6.00;5.50;;;;;14.25;74.88;98957.36;113083;224;170774;-55
2024/04/03 08:25:40;;;;;;;;;7.00;6.00;;;;;14.09;73.84;98958.46;113390;223;39718;-56
2024/04/03 08:28:26;;;;;;;;;8.00;7.00;;;;;13.81;73.05;98959.02;113185;227;169241;-56
2024/04/03 08:31:15;;;;;;;;;5.00;5.00;;;;;13.42;73.06;98964.38;113326;223;40448;-56
2024/04/03 08:33:50;;;;;;;;;10.00;6.50;;;;;13.08;72.71;98969.34;113185;227;169426;-57
2024/04/03 08:36:26;;;;;;;;;6.00;6.00;;;;;12.75;73.40;98966.08;113346;223;41212;-58
2024/04/03 08:39:06;;;;;;;;;7.00;6.00;;;;;12.55;73.86;98962.16;113375;227;41572;-55
2024/04/03 08:41:47;;;;;;;;;8.00;6.00;;;;;12.38;74.10;98962.60;113298;224;39937;-56
2024/04/03 08:44:34;;;;;;;;;6.00;5.00;;;;;12.33;74.32;98960.09;113304;227;39940;-54
2024/04/03 08:47:10;;;;;;;;;7.00;5.00;;;;;12.16;74.57;98966.03;113100;224;169000;-54
2024/04/03 08:49:46;;;;;;;;;9.00;7.00;;;;;11.97;75.02;98973.02;113322;223;40267;-55
2024/04/03 08:52:31;;;;;;;;;10.00;9.00;;;;;11.81;75.74;98981.18;113049;225;168892;-55
2024/04/03 08:55:12;;;;;;;;;11.00;10.00;;;;;11.63;76.58;99007.27;113308;223;41039;-59
2024/04/03 08:57:54;;;;;;;;;6.50;5.00;;;;;11.32;77.62;99021.30;113097;227;170149;-61
2024/04/03 09:00:31;;;;;;;;;2.00;2.00;;;;;10.91;78.24;99029.83;113321;223;40643;-57
2024/04/03 09:03:10;;;;;;;;;4.00;3.00;;;;;10.73;78.89;99024.79;113356;223;40480;-57
2024/04/03 09:05:46;;;;;;;;;3.00;2.00;;;;;10.70;79.06;99027.52;113367;228;40588;-55
2024/04/03 09:08:22;;;;;;;;;3.00;2.00;;;;;10.71;79.30;99026.42;113362;225;39899;-55
2024/04/03 09:10:59;;;;;;;;;4.00;3.50;;;;;10.95;79.87;99032.97;113133;224;169884;-55
2024/04/03 09:13:39;;;;;;;;;3.00;2.00;;;;;11.18;80.13;99033.77;113344;224;42298;-55
2024/04/03 09:16:15;;;;;;;;;3.00;3.00;;;;;11.40;80.11;99036.52;113106;224;170369;-54
2024/04/03 09:19:03;;;;;;;;;3.00;3.00;;;;;11.52;80.03;99039.48;113284;228;42077;-55
2024/04/03 09:21:43;;;;;;;;;2.00;2.00;;;;;11.53;79.68;99042.95;113085;224;169963;-55
2024/04/03 09:24:20;;;;;;;;;2.00;2.00;;;;;11.64;80.03;99051.05;113330;224;40205;-58
2024/04/03 09:27:02;;;;;;;;;2.00;1.00;;;;;12.01;80.13;99055.77;113355;227;41353;-59
2024/04/03 09:29:41;;;;;;;;;4.00;3.00;;;;;12.19;79.80;99054.23;113182;224;168812;-57
2024/04/03 09:32:17;;;;;;;;;1.00;1.00;;;;;12.18;79.24;99058.67;113399;223;40528;-59
2024/04/03 09:34:57;;;;;;;;;2.00;2.00;;;;;12.07;78.98;99061.31;113141;224;169109;-57
2024/04/03 09:37:35;;;;;;;;;3.00;2.00;;;;;12.04;78.98;99064.69;113395;223;40261;-57
2024/04/03 09:40:12;;;;;;;;;2.00;2.00;;;;;12.22;79.04;99067.52;113089;226;169297;-56
2024/04/03 09:42:51;;;;;;;;;2.00;2.00;;;;;12.29;78.44;99067.70;113301;226;41309;-55
2024/04/03 09:45:31;;;;;;;;;4.00;3.00;;;;;12.09;78.05;99079.45;113169;222;169359;-55
2024/04/03 09:48:11;;;;;;;;;3.00;2.00;;;;;11.87;78.13;99084.42;113290;226;40406;-56
2024/04/03 09:50:46;;;;;;;;;2.33;2.00;;;;;11.72;78.03;99092.17;113393;226;39961;-58
2024/04/03 09:53:27;;;;;;;;;2.50;2.00;;;;;11.61;78.30;99097.27;113147;224;170410;-55
2024/04/03 09:56:08;;;;;;;;;3.33;3.00;;;;;11.59;78.42;99099.20;113399;226;40835;-56
2024/04/03 09:58:45;;;;;;;;;3.00;2.00;;;;;11.62;78.54;99110.00;113155;223;169897;-55
2024/04/03 10:01:28;;;;;;;;;2.00;2.00;;;;;11.65;78.31;99109.73;113393;224;40507;-58
2024/04/03 10:04:13;;;;;;;;;3.00;3.00;;;;;11.53;78.53;99116.21;113276;224;169885;-57
2024/04/03 10:06:51;;;;;;;;;3.00;3.00;;;;;11.48;78.68;99114.33;113396;226;40271;-57
2024/04/03 10:09:39;;;;;;;;;4.00;3.00;;;;;11.52;78.68;99113.98;113205;222;169692;-56
2024/04/03 10:12:22;;;;;;;;;3.00;3.00;;;;;11.57;78.60;99121.05;113385;224;40100;-56
2024/04/03 10:15:03;;;;;;;;;3.00;3.00;;;;;11.45;78.52;99130.79;113358;226;40836;-58
2024/04/03 10:17:50;;;;;;;;;4.00;3.00;;;;;11.42;78.72;99134.23;113147;224;168940;-58
2024/04/03 10:20:42;;;;;;;;;5.00;4.00;;;;;11.46;78.69;99130.09;113309;223;40445;-55
2024/04/03 10:23:23;;;;;;;;;3.00;2.00;;;;;11.41;78.57;99130.22;113185;224;169519;-55
2024/04/03 10:25:57;;;;;;;;;5.00;4.00;;;;;11.31;78.71;99132.91;113331;222;40713;-57
2024/04/03 10:28:38;;;;;;;;;5.00;4.00;;;;;11.28;78.73;99129.91;113157;223;170021;-58
2024/04/03 10:31:25;;;;;;;;;3.00;2.00;;;;;11.28;78.72;99138.23;113300;223;40073;-56
2024/04/03 10:34:08;;;;;;;;;2.00;2.00;;;;;11.28;78.78;99135.11;113166;226;170441;-57
2024/04/03 10:36:43;;;;;;;;;2.50;2.00;;;;;11.37;78.85;99133.14;113335;222;40942;-58
2024/04/03 10:39:19;;;;;;;;;5.00;4.00;;;;;11.41;79.26;99132.34;113193;226;170018;-59
2024/04/03 10:42:11;;;;;;;;;3.00;3.00;;;;;11.68;79.60;99137.55;113372;224;42921;-63
2024/04/03 10:44:47;;;;;;;;;3.00;2.00;;;;;12.02;79.72;99143.61;113364;226;39954;-57
2024/04/03 10:47:22;;;;;;;;;3.00;2.50;;;;;12.22;79.16;99145.68;113221;222;173246;-57
2024/04/03 10:50:08;;;;;;;;;3.00;3.00;;;;;12.23;78.72;99145.65;113401;222;39874;-56
2024/04/03 10:52:45;;;;;;;;;3.00;3.00;;;;;12.07;78.29;99148.30;113147;228;169056;-56
2024/04/03 10:55:24;;;;;;;;;5.00;4.00;;;;;12.00;78.13;99151.70;113368;224;41619;-58
2024/04/03 10:58:05;;;;;;;;;5.00;3.00;;;;;11.93;77.94;99155.70;113137;225;169588;-58
2024/04/03 11:00:44;;;;;;;;;5.00;3.00;;;;;11.81;77.79;99164.02;113298;223;41421;-56
2024/04/03 11:03:35;;;;;;;;;8.00;6.00;;;;;11.71;77.64;99167.59;113175;227;170008;-57
2024/04/03 11:06:14;;;;;;;;;5.50;4.00;;;;;11.50;78.13;99170.06;113306;223;40276;-55
2024/04/03 11:08:49;;;;;;;;;5.00;4.00;;;;;11.34;78.46;99184.08;113353;223;41991;-57
2024/04/03 11:11:30;;;;;;;;;6.00;4.00;;;;;11.07;79.11;99192.04;113082;226;169816;-57
2024/04/03 11:14:12;;;;;;;;;6.00;5.00;;;;;10.70;79.20;99196.02;113356;223;41167;-55
2024/04/03 11:16:49;;;;;;;;;7.33;6.00;;;;;10.49;79.14;99204.39;113126;224;170234;-55
2024/04/03 11:19:24;;;;;;;;;6.00;6.00;;;;;10.29;79.26;99208.00;113315;226;41019;-56
2024/04/03 11:22:06;;;;;;;;;5.50;5.00;;;;;10.09;79.33;99203.27;113174;226;169998;-56
2024/04/03 11:24:44;;;;;;;;;4.00;4.00;;;;;10.10;79.94;99216.17;113384;223;41083;-55
2024/04/03 11:27:22;;;;;;;;;5.00;5.00;;;;;9.99;80.13;99215.34;113193;223;169751;-55
2024/04/03 11:29:59;;;;;;;;;8.00;6.50;;;;;9.96;80.73;99213.77;113335;224;40943;-57
2024/04/03 11:32:35;;;;;;;;;7.00;6.00;;;;;9.90;80.81;99225.34;113358;223;40357;-55
2024/04/03 11:35:16;;;;;;;;;8.00;5.50;;;;;9.87;81.09;99229.55;113171;223;168939;-54
2024/04/03 11:37:52;;;;;;;;;7.00;6.00;;;;;9.85;81.02;99233.45;113379;223;40613;-54
2024/04/03 11:40:27;;;;;;;;;6.00;5.00;;;;;9.78;81.19;99241.23;113170;223;169603;-56
2024/04/03 11:43:09;;;;;;;;;7.00;6.00;;;;;9.67;81.45;99237.95;113314;227;40668;-56
2024/04/03 11:45:43;;;;;;;;;8.00;7.00;;;;;9.61;81.54;99237.20;113147;228;170680;-58
2024/04/03 11:48:17;;;;;;;;;11.00;9.00;;;;;9.63;81.65;99237.25;113320;225;39884;-57
2024/04/03 11:50:53;;;;;;;;;8.00;6.00;;;;;9.67;81.75;99244.50;113327;228;41537;-55
2024/04/03 11:53:32;;;;;;;;;8.00;7.00;;;;;9.69;81.97;99247.90;113109;224;169691;-55
2024/04/03 11:56:09;;;;;;;;;9.00;7.00;;;;;9.61;82.14;99251.45;113306;227;39987;-54
2024/04/03 11:58:48;;;;;;;;;6.75;5.75;;;;;9.63;82.13;99255.34;113128;225;169541;-55
2024/04/03 12:01:26;;;;;;;;;7.00;6.00;;;;;9.63;82.38;99258.16;113326;225;40724;-55
2024/04/03 12:04:06;;;;;;;;;6.50;6.00;;;;;9.59;82.61;99272.56;113130;224;169815;-57
2024/04/03 12:06:41;;;;;;;;;7.50;6.00;;;;;9.55;82.59;99272.20;113303;228;40452;-57
2024/04/03 12:09:18;;;;;;;;;7.00;6.00;;;;;9.54;82.87;99280.95;113200;225;169119;-57
2024/04/03 12:11:58;;;;;;;;;9.00;7.00;;;;;9.51;82.52;99283.12;113337;224;40450;-57
2024/04/03 12:14:41;;;;;;;;;7.00;7.00;;;;;9.51;82.66;99276.14;113340;227;40525;-56
2024/04/03 12:17:23;;;;;;;;;7.00;5.00;;;;;9.66;82.43;99270.15;113137;224;169837;-56
2024/04/03 12:20:07;;;;;;;;;7.00;7.00;;;;;9.75;82.34;99277.79;113340;225;40621;-56
2024/04/03 12:22:44;;;;;;;;;7.50;6.00;;;;;9.78;81.85;99281.58;113174;224;170792;-56
2024/04/03 12:25:23;;;;;;;;;8.00;7.00;;;;;9.70;81.55;99284.73;113391;228;40405;-56
2024/04/03 12:28:03;;;;;;;;;7.00;6.33;;;;;9.69;81.04;99278.14;113030;228;169930;-56
2024/04/03 12:30:47;;;;;;;;;6.00;5.50;;;;;9.67;81.15;99283.30;113362;224;40263;-54
2024/04/03 12:33:25;;;;;;;;;7.00;6.00;;;;;9.68;81.31;99287.90;113141;225;169255;-55